Time;durP1;ratioP1;P1;durP2;ratioP2;P2;SDS_P1;SDS_P2;PMS_P1;PMS_P2;Temp;Humidity;BMP_temperature;BMP_pressure;BME280_temperature;BME280_humidity;BME280_pressure;Samples;Min_cycle;Max_cycle;Signal;HPM_P1;HPM_P2
2022/09/03 07:46:37;;;;;;;4.88;3.56;;;;;;;18.70;68.86;96247.56;4209677;27;1269428;-62
2022/09/03 07:47:46;;;;;;;6.68;3.42;;;;;;;18.62;69.22;96236.81;2089655;27;20220;-62
2022/09/03 07:48:58;;;;;;;5.22;3.42;;;;;;;18.87;68.98;96246.97;2082500;28;20207;-62
2022/09/03 07:49:59;;;;;;;6.40;3.05;;;;;;;19.02;68.41;96250.16;2083768;28;20196;-62
2022/09/03 07:51:01;;;;;;;5.25;2.97;;;;;;;19.29;67.90;96253.22;2090145;28;20192;-63
2022/09/03 08:32:09;;;;;;;6.32;2.47;;;;;;;20.00;63.69;96278.88;2070966;27;20556;-62
2022/09/03 08:33:14;;;;;;;3.95;2.58;;;;;;;20.38;62.57;96285.22;2060475;28;20195;-62
2022/09/03 08:41:13;;;;;;;6.32;2.95;;;;;;;20.92;60.18;96282.97;2052236;28;20222;-64
2022/09/03 08:42:43;;;;;;;5.85;3.03;;;;;;;20.94;60.39;96293.44;2052208;28;20411;-64
2022/09/03 08:43:47;;;;;;;9.23;2.33;;;;;;;21.04;59.87;96299.59;2052898;28;20199;-64
2022/09/03 08:44:59;;;;;;;5.03;2.60;;;;;;;21.07;59.51;96293.16;2051761;28;20203;-65
2022/09/03 08:46:01;;;;;;;6.25;2.70;;;;;;;21.00;59.52;96300.84;2052582;28;20349;-64
2022/09/03 08:47:13;;;;;;;5.47;2.42;;;;;;;20.92;60.25;96300.72;2052117;28;20196;-64
2022/09/03 08:48:22;;;;;;;6.55;2.53;;;;;;;21.04;59.64;96311.03;2053193;28;20195;-66
2022/09/03 08:50:03;;;;;;;4.60;2.55;;;;;;;21.03;59.18;96314.66;2052477;28;20298;-66
2022/09/03 08:58:18;;;;;;;7.05;2.70;;;;;;;22.45;56.62;96326.22;2053006;28;20211;-66
2022/09/03 08:59:21;;;;;;;9.20;2.85;;;;;;;22.98;55.68;96314.72;2052868;28;20199;-66
2022/09/03 09:00:45;;;;;;;4.43;2.50;;;;;;;23.42;54.69;96313.03;2052569;28;20291;-65
2022/09/03 09:02:34;;;;;;;8.20;2.90;;;;;;;23.53;52.99;96322.59;2052891;28;20217;-66
2022/09/03 09:09:03;;;;;;;4.10;2.65;;;;;;;24.13;51.79;96319.09;2052905;28;20226;-65
2022/09/03 09:10:15;;;;;;;9.38;3.13;;;;;;;23.45;52.89;96331.38;2051402;28;20307;-65
2022/09/03 09:11:41;;;;;;;4.95;2.88;;;;;;;23.08;54.56;96327.91;2051778;28;20207;-65
2022/09/03 09:12:46;;;;;;;4.00;2.58;;;;;;;23.60;53.77;96335.16;2052399;28;20242;-65
2022/09/03 09:14:17;;;;;;;2.90;1.80;;;;;;;23.50;52.82;96330.91;2052577;28;20196;-63
2022/09/03 09:15:40;;;;;;;4.90;2.28;;;;;;;23.85;52.46;96335.25;2052921;28;20196;-64
2022/09/03 09:16:50;;;;;;;3.28;2.05;;;;;;;24.22;52.06;96323.44;2052494;28;20210;-63
2022/09/03 09:17:58;;;;;;;6.22;2.45;;;;;;;24.39;51.14;96326.16;2052599;28;20705;-64
2022/09/03 09:19:10;;;;;;;4.38;2.25;;;;;;;24.04;52.05;96325.38;2052884;28;20195;-63
2022/09/03 09:20:21;;;;;;;6.10;2.28;;;;;;;23.47;53.54;96322.22;2052057;28;20200;-63
2022/09/03 09:21:27;;;;;;;4.82;2.80;;;;;;;23.88;52.07;96329.59;2052518;28;20212;-63
2022/09/03 09:22:33;;;;;;;4.05;2.25;;;;;;;23.87;51.88;96319.97;2052138;28;20219;-64
2022/09/03 09:23:41;;;;;;;7.57;2.45;;;;;;;24.17;51.87;96323.09;2052322;28;20203;-63
2022/09/03 09:24:46;;;;;;;4.20;2.40;;;;;;;24.42;50.89;96323.16;2052773;28;20195;-63
2022/09/03 09:25:50;;;;;;;3.22;2.10;;;;;;;24.53;50.43;96316.69;2051987;28;20222;-64
2022/09/03 09:26:59;;;;;;;4.35;2.55;;;;;;;24.32;50.44;96306.47;2052223;28;20199;-63
2022/09/03 09:28:12;;;;;;;5.30;2.33;;;;;;;24.14;50.71;96315.44;2052857;28;20202;-63
2022/09/03 09:29:18;;;;;;;4.95;2.60;;;;;;;24.21;51.23;96305.75;2052401;28;20195;-62
2022/09/03 09:30:19;;;;;;;3.80;2.50;;;;;;;24.01;51.59;96301.69;2052967;28;20207;-64
2022/09/03 09:31:21;;;;;;;2.85;2.38;;;;;;;24.26;51.51;96308.81;2052750;28;20207;-64
2022/09/03 09:32:22;;;;;;;5.43;2.40;;;;;;;24.23;51.23;96298.44;2052279;28;20263;-64
2022/09/03 09:33:24;;;;;;;5.80;2.70;;;;;;;24.50;50.87;96317.00;2052746;28;20558;-64
2022/09/03 09:34:26;;;;;;;8.30;3.65;;;;;;;25.07;49.98;96313.59;2052841;28;20206;-64
2022/09/03 09:35:27;;;;;;;2.75;2.10;;;;;;;25.20;49.05;96305.06;2052624;28;20203;-63
2022/09/03 09:36:29;;;;;;;8.52;2.65;;;;;;;25.29;48.99;96313.91;2052743;28;20306;-63
2022/09/03 09:37:34;;;;;;;4.13;2.90;;;;;;;24.99;49.08;96301.06;2052463;28;20706;-65
2022/09/03 09:38:37;;;;;;;3.38;2.28;;;;;;;24.82;49.53;96310.06;2052226;28;20222;-62
2022/09/03 09:45:03;;;;;;;5.88;2.67;;;;;;;26.28;46.97;96306.44;2047406;29;20176;-62
2022/09/03 09:46:18;;;;;;;8.70;2.28;;;;;;;25.99;47.50;96310.59;2047427;29;20222;-62
2022/09/03 09:47:38;;;;;;;6.07;3.00;;;;;;;25.16;48.29;96317.09;2046940;28;20220;-62
2022/09/03 09:48:51;;;;;;;5.10;2.55;;;;;;;25.06;48.98;96309.25;2047312;29;20225;-62
2022/09/03 09:49:59;;;;;;;4.32;2.50;;;;;;;25.10;48.44;96322.09;2047022;29;20561;-62
2022/09/03 09:57:39;;;;;;;6.78;2.75;;;;;;;23.22;53.37;96315.91;2083987;28;20796;-62
2022/09/03 09:58:40;;;;;;;6.55;2.83;;;;;;;22.29;56.17;96322.34;2089049;28;20200;-62
2022/09/03 09:59:43;;;;;;;10.25;2.88;;;;;;;22.79;55.21;96312.19;2089268;28;20557;-62
2022/09/03 10:01:02;;;;;;;8.52;2.40;;;;;;;23.38;54.15;96317.03;2088983;28;20204;-62
2022/09/03 10:02:11;;;;;;;6.82;2.92;;;;;;;23.35;54.34;96315.50;2088681;28;20223;-62
2022/09/03 10:03:22;;;;;;;4.30;2.70;;;;;;;22.94;55.63;96313.34;2089011;28;20200;-62
2022/09/03 10:04:29;;;;;;;4.00;2.28;;;;;;;23.39;54.65;96311.53;2088476;28;20196;-62
2022/09/03 10:05:35;;;;;;;6.40;2.60;;;;;;;23.47;53.95;96303.56;2088468;28;20332;-62
2022/09/03 10:06:52;;;;;;;6.80;2.58;;;;;;;23.86;53.18;96315.63;2089058;28;20204;-62
2022/09/03 10:08:00;;;;;;;3.78;2.15;;;;;;;24.69;51.53;96315.91;2046661;29;20341;-62
2022/09/03 10:09:07;;;;;;;4.55;2.65;;;;;;;24.89;50.24;96319.94;2046737;29;20229;-62
2022/09/03 10:10:12;;;;;;;6.45;3.30;;;;;;;24.98;49.88;96317.28;2045974;29;20200;-62
2022/09/03 10:11:15;;;;;;;6.68;3.97;;;;;;;24.75;50.30;96312.59;2047410;28;20200;-63
2022/09/03 10:12:23;;;;;;;5.93;2.80;;;;;;;24.29;51.13;96307.63;2046712;28;20220;-63
2022/09/03 10:13:41;;;;;;;5.75;3.10;;;;;;;24.28;52.05;96308.63;2047364;28;20207;-63
2022/09/03 10:14:54;;;;;;;4.28;2.65;;;;;;;25.66;48.81;96310.69;2046792;29;20200;-63
2022/09/03 10:16:20;;;;;;;9.13;2.85;;;;;;;26.32;47.29;96313.13;2046832;28;20691;-64
2022/09/03 10:17:43;;;;;;;6.60;2.90;;;;;;;27.09;45.77;96311.44;2046673;28;20687;-64
2022/09/03 10:19:09;;;;;;;4.65;2.95;;;;;;;26.75;45.50;96310.03;2047269;29;20196;-64
2022/09/03 10:20:30;;;;;;;3.95;2.85;;;;;;;26.35;46.66;96317.31;2046788;29;20223;-64
2022/09/03 10:21:42;;;;;;;19.63;2.85;;;;;;;26.37;46.73;96309.91;2046505;29;20290;-64
2022/09/03 10:22:51;;;;;;;4.60;2.83;;;;;;;26.37;47.02;96307.22;2046153;28;20231;-64
2022/09/03 10:24:38;;;;;;;5.70;2.70;;;;;;;26.28;46.91;96308.28;2047171;29;20252;-64
2022/09/03 10:26:06;;;;;;;4.32;2.92;;;;;;;26.34;46.40;96311.09;2046941;28;20199;-64
2022/09/03 10:27:11;;;;;;;6.88;2.88;;;;;;;26.01;46.90;96271.09;2046801;28;20204;-64
2022/09/03 10:28:12;;;;;;;6.32;2.33;;;;;;;24.29;50.45;96297.78;2046343;29;20207;-64
2022/09/03 10:29:19;;;;;;;4.45;3.10;;;;;;;24.21;51.51;96303.09;2046609;29;20200;-64
2022/09/03 10:30:21;;;;;;;6.30;2.95;;;;;;;25.62;48.45;96300.50;2045913;29;20204;-64
2022/09/03 10:31:42;;;;;;;5.47;2.47;;;;;;;26.11;47.34;96300.34;2046978;28;20710;-64
2022/09/03 10:33:08;;;;;;;5.28;2.58;;;;;;;27.01;45.42;96300.81;2046135;28;20231;-64
2022/09/03 10:34:19;;;;;;;4.82;2.55;;;;;;;27.40;44.26;96283.75;2047264;28;20547;-64
2022/09/03 10:35:32;;;;;;;4.57;2.63;;;;;;;26.43;45.85;96295.81;2047135;28;20200;-64
2022/09/03 10:36:40;;;;;;;3.15;2.30;;;;;;;24.71;49.12;96290.72;2047031;28;20200;-64
2022/09/03 10:37:45;;;;;;;4.13;2.70;;;;;;;24.42;50.57;96297.31;2046165;28;20263;-64
2022/09/03 10:44:02;;;;;;;4.55;2.88;;;;;;;24.33;50.04;96287.63;2047088;28;20302;-63
2022/09/03 10:45:27;;;;;;;7.45;3.83;;;;;;;22.34;55.11;96284.66;2046679;28;20646;-63
2022/09/03 10:46:45;;;;;;;4.55;3.00;;;;;;;22.87;53.87;96280.34;2046346;29;20238;-62
2022/09/03 10:48:24;;;;;;;3.97;2.25;;;;;;;23.55;52.75;96284.13;2046639;28;20231;-62
2022/09/03 10:49:48;;;;;;;7.40;2.60;;;;;;;24.24;50.17;96288.59;2045170;28;20200;-63
2022/09/03 10:50:55;;;;;;;9.27;2.95;;;;;;;22.83;53.81;96285.13;2046699;29;20677;-62
2022/09/03 10:52:06;;;;;;;5.45;2.45;;;;;;;22.10;55.94;96282.56;2046530;28;20203;-63
2022/09/03 10:53:38;;;;;;;4.88;2.35;;;;;;;22.01;55.94;96292.28;2046827;29;20616;-62
2022/09/03 10:54:42;;;;;;;3.08;2.08;;;;;;;22.35;55.51;96295.13;2044740;28;20204;-62
2022/09/03 10:56:05;;;;;;;5.13;2.75;;;;;;;22.76;54.41;96294.72;2088416;28;20778;-62
2022/09/03 10:57:19;;;;;;;5.78;2.60;;;;;;;22.92;54.34;96287.84;2077000;28;20208;-63
2022/09/03 10:58:41;;;;;;;4.03;2.80;;;;;;;22.74;55.19;96290.53;2046322;29;20247;-63
2022/09/03 11:00:09;;;;;;;3.08;2.10;;;;;;;23.58;52.89;96288.31;2046319;29;20210;-62
2022/09/03 11:01:46;;;;;;;4.55;2.67;;;;;;;23.35;52.78;96288.88;2046969;28;20199;-62
2022/09/03 11:08:05;;;;;;;2.80;2.13;;;;;;;25.51;48.09;96291.00;2046240;28;20220;-64
2022/09/03 11:09:07;;;;;;;3.25;2.20;;;;;;;24.99;48.98;96292.22;2046470;29;20199;-62
2022/09/03 11:10:17;;;;;;;4.35;2.20;;;;;;;24.90;49.72;96289.56;2046162;29;20206;-62
2022/09/03 11:11:21;;;;;;;12.93;2.60;;;;;;;25.48;49.21;96288.69;2046927;28;20208;-62
2022/09/03 11:12:33;;;;;;;3.13;2.00;;;;;;;24.64;50.00;96284.38;2046315;28;20239;-62
2022/09/03 11:13:50;;;;;;;6.68;2.47;;;;;;;24.12;50.71;96269.41;2046660;29;20195;-62
2022/09/03 11:15:11;;;;;;;4.55;2.20;;;;;;;24.07;51.62;96280.53;2046782;28;20238;-62
2022/09/03 11:16:27;;;;;;;4.72;2.17;;;;;;;24.20;50.77;96273.91;2046861;28;20246;-62
2022/09/03 11:17:36;;;;;;;3.63;1.95;;;;;;;23.80;51.81;96265.59;2045010;28;20846;-62
2022/09/03 11:18:56;;;;;;;5.78;2.35;;;;;;;24.54;50.70;96279.16;2046751;28;20208;-63
2022/09/03 11:19:57;;;;;;;3.55;2.53;;;;;;;24.84;49.90;96279.53;2046415;29;20203;-62
2022/09/03 11:21:04;;;;;;;5.88;2.47;;;;;;;24.94;49.63;96272.19;2047040;29;20219;-63
2022/09/03 11:22:17;;;;;;;3.17;2.25;;;;;;;25.19;49.09;96274.84;2046232;28;20231;-62
2022/09/03 11:23:25;;;;;;;4.18;2.13;;;;;;;25.00;49.63;96262.69;2046666;29;20790;-63
2022/09/03 11:24:31;;;;;;;3.47;2.30;;;;;;;23.69;52.09;96265.88;2046262;29;20199;-62
2022/09/03 11:25:39;;;;;;;5.28;2.40;;;;;;;24.28;51.08;96266.78;2046354;29;20606;-65
2022/09/03 11:26:47;;;;;;;5.10;2.05;;;;;;;23.63;52.41;96272.72;2046315;28;20200;-64
2022/09/03 11:28:02;;;;;;;4.00;2.40;;;;;;;22.60;54.62;96263.50;2087686;28;20224;-64
2022/09/03 11:29:27;;;;;;;4.32;2.50;;;;;;;23.24;53.57;96278.47;2081627;28;20195;-64
2022/09/03 11:30:38;;;;;;;3.35;2.17;;;;;;;23.03;53.56;96258.31;2055871;28;20626;-64
2022/09/03 11:32:00;;;;;;;3.58;2.22;;;;;;;23.32;54.19;96275.84;2045848;29;20735;-64
2022/09/03 11:33:08;;;;;;;4.97;2.60;;;;;;;23.20;54.64;96266.44;2045316;28;20224;-65
2022/09/03 11:34:15;;;;;;;3.33;2.10;;;;;;;22.99;53.78;96263.16;2046880;28;20341;-65
2022/09/03 11:35:27;;;;;;;6.53;2.47;;;;;;;23.28;54.04;96262.00;2047275;29;20638;-64
2022/09/03 11:36:32;;;;;;;8.70;2.78;;;;;;;23.19;53.38;96264.81;2046560;29;20511;-65
2022/09/03 11:37:50;;;;;;;6.53;2.65;;;;;;;22.96;53.79;96258.13;2045604;28;20719;-64
2022/09/03 11:38:51;;;;;;;3.38;2.70;;;;;;;22.76;54.82;96252.13;2046772;29;20195;-64
2022/09/03 11:40:15;;;;;;;3.08;2.05;;;;;;;22.23;54.77;96245.81;2046774;28;20207;-64
2022/09/03 11:41:25;;;;;;;4.55;2.85;;;;;;;22.49;54.63;96266.38;2046656;29;20647;-64
2022/09/03 11:42:35;;;;;;;5.15;2.83;;;;;;;22.23;55.26;96267.09;2046683;28;20267;-65
2022/09/03 11:43:43;;;;;;;4.47;1.90;;;;;;;22.05;55.70;96248.47;2046937;29;20203;-65
2022/09/03 11:44:45;;;;;;;6.13;2.25;;;;;;;22.17;56.08;96263.22;2046594;29;20200;-65
2022/09/03 12:44:04;;;;;;;3.59;1.60;;;;;;;17.18;77.10;96338.81;4240496;27;20881;-62
2022/09/03 12:45:11;;;;;;;2.73;1.50;;;;;;;17.27;76.37;96329.34;2068585;28;1232571;-62
2022/09/03 12:46:14;;;;;;;3.35;1.27;;;;;;;17.24;76.43;96333.06;2116589;28;20205;-62
2022/09/03 12:47:18;;;;;;;9.57;2.28;;;;;;;17.46;75.72;96334.06;2116223;28;20230;-61
2022/09/03 12:48:38;;;;;;;9.27;2.05;;;;;;;17.33;76.34;96318.34;2117150;28;20602;-61
2022/09/03 12:49:55;;;;;;;5.13;1.40;;;;;;;17.36;76.22;96331.28;2115648;28;20284;-64
2022/09/03 12:51:01;;;;;;;12.07;1.75;;;;;;;17.43;75.56;96307.88;2116666;28;20203;-64
2022/09/03 12:52:40;;;;;;;3.53;1.80;;;;;;;17.81;74.78;96313.75;2116281;28;20248;-64
2022/09/03 12:53:41;;;;;;;5.80;1.85;;;;;;;17.74;74.95;96316.06;2117756;28;20193;-64
2022/09/03 12:55:07;;;;;;;5.68;1.63;;;;;;;17.78;74.70;96323.59;2104485;28;20281;-64
2022/09/03 13:03:03;;;;;;;5.20;1.40;;;;;;;18.17;73.05;96323.22;2115181;28;20735;-64
2022/09/03 13:04:14;;;;;;;2.45;1.30;;;;;;;18.32;72.12;96326.44;2116572;28;20893;-64
2022/09/03 13:05:41;;;;;;;5.03;1.58;;;;;;;18.84;71.02;96326.59;2110259;28;20190;-64
2022/09/03 13:06:51;;;;;;;3.15;1.33;;;;;;;18.77;71.18;96328.91;2110491;28;20202;-63
2022/09/03 13:08:01;;;;;;;2.22;1.10;;;;;;;19.12;70.65;96326.94;2110815;28;20222;-63
2022/09/03 13:09:06;;;;;;;5.00;1.92;;;;;;;19.16;70.28;96322.22;2111184;28;20646;-63
2022/09/03 13:10:22;;;;;;;2.45;1.38;;;;;;;19.02;70.26;96326.03;2112881;28;20197;-63
2022/09/03 13:11:25;;;;;;;2.47;1.55;;;;;;;19.07;70.06;96330.00;2113369;28;20193;-63
2022/09/03 13:12:43;;;;;;;1.88;0.93;;;;;;;19.04;70.00;96332.06;2114837;28;20245;-64
2022/09/03 13:14:04;;;;;;;4.68;1.27;;;;;;;19.01;70.33;96327.84;2115210;28;20218;-64
2022/09/03 13:15:09;;;;;;;4.63;1.10;;;;;;;19.07;70.09;96335.28;2115511;28;20696;-63
2022/09/03 13:16:22;;;;;;;2.80;1.10;;;;;;;18.80;72.78;96342.84;2107829;28;20191;-63
2022/09/03 13:17:23;;;;;;;6.28;1.65;;;;;;;19.01;73.54;96343.72;2102639;28;20221;-64
2022/09/03 13:19:03;;;;;;;10.45;1.63;;;;;;;19.00;73.00;96341.22;2103725;28;20198;-64
2022/09/03 13:27:07;;;;;;;4.03;1.25;;;;;;;19.61;72.70;96343.09;2105120;28;20179;-65
2022/09/03 13:28:31;;;;;;;4.88;2.08;;;;;;;19.63;70.59;96338.53;2106586;28;20238;-64
2022/09/03 13:29:39;;;;;;;3.15;1.30;;;;;;;20.09;70.74;96338.16;2107235;28;20545;-67
2022/09/03 13:30:58;;;;;;;2.40;1.65;;;;;;;21.21;67.25;96343.16;2102475;28;20195;-67
2022/09/03 13:32:29;;;;;;;2.60;1.30;;;;;;;21.20;65.00;96337.00;2108622;28;20741;-67
2022/09/03 13:33:37;;;;;;;3.85;1.60;;;;;;;21.59;63.53;96332.63;2109963;28;20713;-67
2022/09/03 13:34:45;;;;;;;3.60;1.75;;;;;;;21.06;64.62;96333.94;2105274;28;20191;-67
2022/09/03 13:36:12;;;;;;;2.30;1.08;;;;;;;21.55;63.60;96321.44;2106205;28;20199;-67
2022/09/03 13:44:23;;;;;;;3.38;1.50;;;;;;;22.23;63.24;96324.75;2111922;28;20210;-66
2022/09/03 13:45:25;;;;;;;4.53;1.48;;;;;;;22.02;62.17;96324.03;2115151;28;20202;-66
2022/09/03 13:46:52;;;;;;;2.95;1.20;;;;;;;21.35;64.31;96323.28;2114968;28;20205;-67
2022/09/03 13:51:35;;;;;;;3.35;1.73;;;;;;;20.46;69.19;96303.06;2114481;28;20213;-66
2022/09/03 13:52:56;;;;;;;8.10;1.58;;;;;;;20.71;69.22;96307.03;2106578;28;20246;-66
2022/09/03 13:54:11;;;;;;;4.07;1.60;;;;;;;20.74;68.22;96311.22;2101559;28;20699;-66
2022/09/03 14:14:03;;;;;;;3.67;1.83;;;;;;;19.78;72.21;96304.56;2098430;28;20206;-65
2022/09/03 14:15:31;;;;;;;4.00;1.88;;;;;;;19.57;73.21;96317.88;2100119;28;20199;-65
2022/09/03 14:17:04;;;;;;;2.80;1.50;;;;;;;19.58;73.19;96315.09;2100750;28;20705;-65
2022/09/03 14:18:43;;;;;;;3.28;1.63;;;;;;;19.37;73.31;96317.75;2110520;28;20214;-65
2022/09/03 14:19:59;;;;;;;3.35;1.42;;;;;;;19.84;72.93;96311.19;2107544;28;20547;-64
2022/09/03 14:29:36;;;;;;;5.65;1.55;;;;;;;20.36;71.73;96321.63;2055409;27;1298140;-62
2022/09/03 14:30:53;;;;;;;5.68;2.20;;;;;;;20.50;71.59;96320.38;2098309;28;20195;-63
2022/09/03 14:37:05;;;;;;;2.67;1.50;;;;;;;19.39;76.27;96312.34;2074316;28;20264;-65
2022/09/03 14:38:29;;;;;;;2.60;1.50;;;;;;;19.89;74.52;96315.09;2073322;28;20212;-65
2022/09/03 14:39:53;;;;;;;6.45;1.60;;;;;;;19.48;74.26;96319.50;2074632;28;20307;-65
2022/09/03 14:41:01;;;;;;;3.08;1.60;;;;;;;20.03;75.00;96321.00;2072538;28;20251;-65
2022/09/03 14:42:05;;;;;;;4.50;1.67;;;;;;;20.26;74.88;96323.41;2073739;28;20201;-65
2022/09/03 14:43:19;;;;;;;7.32;2.00;;;;;;;20.50;74.30;96317.72;2076334;28;20193;-65
2022/09/03 14:44:47;;;;;;;4.50;2.00;;;;;;;20.77;74.33;96343.59;2074295;28;20553;-65
2022/09/03 14:53:04;;;;;;;6.53;2.17;;;;;;;22.60;65.20;96322.03;2077188;28;21112;-63
2022/09/03 14:54:15;;;;;;;3.40;1.73;;;;;;;23.06;63.97;96326.38;2077767;28;20255;-63
2022/09/03 15:02:11;;;;;;;6.63;2.00;;;;;;;21.81;67.48;96307.50;2062154;28;20194;-62
2022/09/03 15:04:02;;;;;;;6.50;2.20;;;;;;;22.09;66.15;96307.50;2061033;28;20194;-63
2022/09/03 15:05:12;;;;;;;4.38;1.80;;;;;;;21.86;66.42;96310.53;2051975;28;20206;-63
2022/09/03 15:06:32;;;;;;;4.68;2.03;;;;;;;21.36;68.06;96306.38;2062690;28;20194;-65
2022/09/03 15:07:57;;;;;;;3.40;1.67;;;;;;;21.41;68.57;96308.56;2060659;28;20801;-65
2022/09/03 15:09:19;;;;;;;3.13;1.58;;;;;;;21.12;68.88;96320.94;2061155;28;20202;-65
2022/09/03 15:10:29;;;;;;;3.65;1.73;;;;;;;21.48;68.79;96315.00;2062301;28;20198;-65
2022/09/03 15:11:46;;;;;;;4.32;2.05;;;;;;;20.85;69.86;96311.06;2062568;28;20205;-62
2022/09/03 15:12:56;;;;;;;6.60;1.60;;;;;;;21.61;68.53;96320.00;2062094;28;20210;-63
2022/09/03 15:14:14;;;;;;;4.07;2.00;;;;;;;22.31;66.36;96322.22;2062354;28;20195;-63
2022/09/03 15:15:45;;;;;;;3.95;1.55;;;;;;;22.58;65.17;96305.38;2062102;28;20205;-65
2022/09/03 15:17:24;;;;;;;2.90;1.60;;;;;;;22.89;63.45;96314.78;2062036;28;20206;-65
2022/09/03 15:18:31;;;;;;;5.40;1.67;;;;;;;23.12;62.85;96312.47;2060697;28;20214;-63
2022/09/03 15:19:57;;;;;;;8.82;1.83;;;;;;;23.43;61.90;96317.38;2062384;28;20217;-62
2022/09/03 15:21:21;;;;;;;3.78;2.05;;;;;;;23.60;60.94;96323.63;2062354;28;20205;-63
2022/09/03 15:22:31;;;;;;;6.85;2.67;;;;;;;23.29;63.02;96310.81;2061740;28;20660;-63
2022/09/03 15:23:59;;;;;;;3.83;1.85;;;;;;;23.09;65.17;96315.44;2062444;28;21111;-63
2022/09/03 15:25:30;;;;;;;4.50;1.55;;;;;;;23.27;65.34;96308.31;2062329;28;20202;-63
2022/09/03 15:26:47;;;;;;;5.03;1.88;;;;;;;22.91;66.59;96303.00;2069237;28;20190;-65
2022/09/03 15:28:27;;;;;;;6.25;2.05;;;;;;;23.11;66.51;96318.81;2075806;28;20316;-62
2022/09/03 15:29:39;;;;;;;11.13;3.05;;;;;;;23.07;66.86;96314.75;2061323;28;20277;-62
2022/09/03 15:30:50;;;;;;;10.07;2.15;;;;;;;23.11;66.15;96319.63;2069568;28;20198;-62
2022/09/03 15:32:30;;;;;;;8.05;2.10;;;;;;;23.15;65.89;96326.34;2069123;28;20217;-63
2022/09/03 15:33:34;;;;;;;4.47;1.85;;;;;;;23.04;65.65;96320.41;2060799;28;20210;-62
2022/09/03 15:34:39;;;;;;;4.10;2.03;;;;;;;23.05;66.33;96327.41;2061846;28;20235;-62
2022/09/03 15:36:05;;;;;;;3.78;1.88;;;;;;;23.17;65.95;96325.34;2062454;28;20194;-63
2022/09/03 15:37:18;;;;;;;3.92;1.95;;;;;;;23.25;66.15;96328.91;2061552;28;20234;-62
2022/09/03 15:38:57;;;;;;;7.35;2.15;;;;;;;23.41;65.21;96324.69;2061287;28;20233;-62
2022/09/03 15:40:05;;;;;;;6.07;2.08;;;;;;;23.19;65.26;96328.72;2060958;28;20198;-62
2022/09/03 15:41:28;;;;;;;4.97;1.80;;;;;;;23.23;64.91;96327.41;2062122;28;20269;-63
2022/09/03 15:42:30;;;;;;;5.75;2.08;;;;;;;23.31;63.96;96312.31;2061554;28;20222;-63
2022/09/03 15:50:29;;;;;;;5.00;2.00;;;;;;;23.13;63.78;96335.44;2061354;28;20202;-62
2022/09/03 16:20:08;;;;;;;3.40;1.58;;;;;;;21.45;65.53;96323.25;2101498;27;20557;-62
2022/09/03 16:21:37;;;;;;;3.10;1.42;;;;;;;21.42;65.41;96329.69;2097452;28;20195;-62
2022/09/03 16:22:46;;;;;;;8.45;2.13;;;;;;;21.46;65.76;96324.94;2092871;28;20225;-62
2022/09/03 16:24:14;;;;;;;3.05;1.70;;;;;;;21.33;66.19;96328.75;2088657;28;20200;-62
2022/09/03 16:25:22;;;;;;;3.15;1.80;;;;;;;21.36;65.92;96333.75;2089765;28;20214;-62
2022/09/03 16:46:28;;;;;;;3.45;2.05;;;;;;;21.89;64.06;96333.31;2082823;28;20561;-61
2022/09/03 16:48:08;;;;;;;3.58;2.17;;;;;;;21.92;64.11;96335.69;2079399;28;20233;-63
2022/09/03 16:49:34;;;;;;;4.45;1.70;;;;;;;21.99;64.43;96334.13;2073343;28;20201;-63
2022/09/03 16:50:51;;;;;;;3.83;1.98;;;;;;;22.16;65.59;96343.13;2070314;28;20536;-64
2022/09/03 16:52:03;;;;;;;3.80;2.00;;;;;;;22.04;69.33;96334.50;2070316;28;20692;-65
2022/09/03 16:53:18;;;;;;;4.80;1.98;;;;;;;22.07;70.35;96333.38;2070018;28;20564;-65
2022/09/03 16:54:29;;;;;;;12.23;2.60;;;;;;;22.00;70.39;96298.56;2070521;28;20216;-65
2022/09/03 18:09:57;;;;;;;5.35;1.92;;;;;;;18.57;82.88;96394.00;2084011;28;20605;-62
